This is the latest recevied weather packets stored in our database for station/object M0TUM-1. If no packets are shown the sender has not sent any weather packets the latest 10 day(s).
| Time | Temp. | Humidity | Pressure | Rain* | Wind** | Luminosity | Snow |
|---|---|---|---|---|---|---|---|
| 1777496545 | 10° C | 72% | 1027.1 hPa | 0 mm | - | 0 W/m² | - |
| 1777496241 | 10° C | 72% | 1026.8 hPa | 0 mm | - | 0 W/m² | - |
| 1777495633 | 10° C | 72% | 1026.9 hPa | 0 mm | - | 0 W/m² | - |
| 1777494724 | 10° C | 72% | 1026.9 hPa | 0 mm | - | 0 W/m² | - |
| 1777493815 | 10° C | 71% | 1026.8 hPa | 0 mm | - | 0 W/m² | - |
| 1777493210 | 10° C | 71% | 1026.9 hPa | 0 mm | - | 0 W/m² | - |
| 1777492603 | 10° C | 71% | 1027 hPa | 0 mm | - | 0 W/m² | - |
| 1777491390 | 10° C | 69% | 1026.8 hPa | 0 mm | - | 0 W/m² | - |
| 1777490781 | 10.56° C | 69% | 1026.7 hPa | 0 mm | - | 0 W/m² | - |
| 1777490479 | 10.56° C | 68% | 1026.7 hPa | 0 mm | - | 1 W/m² | - |
| 1777487149 | 11.67° C | 62% | 1026.3 hPa | 0 mm | - | 32 W/m² | - |
| 1777486542 | 12.22° C | 61% | 1026.5 hPa | 0 mm | - | 39 W/m² | - |
| 1777484722 | 12.78° C | 57% | 1026.7 hPa | 0 mm | - | 80 W/m² | - |
| 1777484115 | 12.78° C | 55% | 1026.9 hPa | 0 mm | - | 108 W/m² | - |
| 1777483508 | 12.78° C | 56% | 1026.8 hPa | 0 mm | - | 107 W/m² | - |
| 1777482595 | 13.33° C | 55% | 1026.8 hPa | 0 mm | - | 133 W/m² | - |
| 1777481080 | 13.89° C | 52% | 1027 hPa | 0 mm | - | 173 W/m² | - |
| 1777480777 | 13.89° C | 52% | 1027.2 hPa | 0 mm | - | 187 W/m² | - |
| 1777480473 | 13.89° C | 52% | 1027.1 hPa | 0 mm | - | 200 W/m² | - |
| 1777480169 | 14.44° C | 51% | 1027.2 hPa | 0 mm | - | 187 W/m² | - |
| 1777479866 | 14.44° C | 49% | 1027.3 hPa | 0 mm | - | 216 W/m² | - |
| 1777477743 | 15° C | 48% | 1027.4 hPa | 0 mm | - | 359 W/m² | - |
| 1777477136 | 15° C | 47% | 1027.5 hPa | 0 mm | - | 372 W/m² | - |
| 1777476833 | 15° C | 47% | 1027.3 hPa | 0 mm | - | 410 W/m² | - |
| 1777476530 | 15° C | 46% | 1027.4 hPa | 0 mm | - | 422 W/m² | - |
* Rain latest hour (hover to see other rain measurements)
** Current wind speed in m/s (hover to see current wind gust speed)